sensor_id;sensor_type;location;lat;lon;timestamp;pressure;altitude;pressure_sealevel;temperature;humidity
75945;BME280;64628;50.104;14.614;2023-04-15T00:00:30;97209.69;;;9.38;53.63
75945;BME280;64628;50.104;14.614;2023-04-15T00:02:56;97204.24;;;9.48;53.36
75945;BME280;64628;50.104;14.614;2023-04-15T00:05:21;97205.29;;;9.34;53.16
75945;BME280;64628;50.104;14.614;2023-04-15T00:07:47;97215.35;;;9.78;53.09
75945;BME280;64628;50.104;14.614;2023-04-15T00:10:13;97214.64;;;9.88;53.47
75945;BME280;64628;50.104;14.614;2023-04-15T00:12:38;97211.63;;;9.44;53.29
75945;BME280;64628;50.104;14.614;2023-04-15T00:15:04;97208.47;;;9.53;53.11
75945;BME280;64628;50.104;14.614;2023-04-15T00:17:29;97206.17;;;9.57;52.94
75945;BME280;64628;50.104;14.614;2023-04-15T00:19:54;97201.70;;;9.43;52.65
75945;BME280;64628;50.104;14.614;2023-04-15T00:22:19;97204.41;;;9.55;52.97
75945;BME280;64628;50.104;14.614;2023-04-15T00:24:45;97203.14;;;9.56;52.98
75945;BME280;64628;50.104;14.614;2023-04-15T00:27:10;97202.45;;;9.13;53.43
75945;BME280;64628;50.104;14.614;2023-04-15T00:29:36;97193.98;;;9.31;53.05
75945;BME280;64628;50.104;14.614;2023-04-15T00:32:01;97192.59;;;9.57;52.77
75945;BME280;64628;50.104;14.614;2023-04-15T00:34:27;97188.22;;;9.52;52.88
75945;BME280;64628;50.104;14.614;2023-04-15T00:36:52;97186.03;;;9.35;53.24
75945;BME280;64628;50.104;14.614;2023-04-15T00:39:18;97179.65;;;9.37;53.20
75945;BME280;64628;50.104;14.614;2023-04-15T00:41:43;97178.88;;;9.45;53.07
75945;BME280;64628;50.104;14.614;2023-04-15T00:44:08;97177.30;;;9.45;52.99
75945;BME280;64628;50.104;14.614;2023-04-15T00:46:36;97177.95;;;9.41;53.03
75945;BME280;64628;50.104;14.614;2023-04-15T00:49:00;97178.91;;;9.29;53.22
75945;BME280;64628;50.104;14.614;2023-04-15T00:51:25;97180.38;;;9.44;53.39
75945;BME280;64628;50.104;14.614;2023-04-15T00:53:50;97177.08;;;9.21;53.32
75945;BME280;64628;50.104;14.614;2023-04-15T00:56:16;97181.76;;;9.07;53.71
75945;BME280;64628;50.104;14.614;2023-04-15T00:58:41;97183.14;;;9.25;53.27
75945;BME280;64628;50.104;14.614;2023-04-15T01:01:07;97183.00;;;9.34;53.15
75945;BME280;64628;50.104;14.614;2023-04-15T01:03:32;97182.78;;;9.34;53.19
75945;BME280;64628;50.104;14.614;2023-04-15T01:05:58;97185.13;;;9.53;52.90
75945;BME280;64628;50.104;14.614;2023-04-15T01:08:26;97182.03;;;9.41;53.10
75945;BME280;64628;50.104;14.614;2023-04-15T01:10:48;97180.55;;;9.53;52.85
75945;BME280;64628;50.104;14.614;2023-04-15T01:13:14;97183.13;;;9.51;53.01
75945;BME280;64628;50.104;14.614;2023-04-15T01:15:39;97183.46;;;9.41;52.83
75945;BME280;64628;50.104;14.614;2023-04-15T01:18:05;97178.95;;;9.74;52.48
75945;BME280;64628;50.104;14.614;2023-04-15T01:20:30;97179.84;;;9.79;52.39
75945;BME280;64628;50.104;14.614;2023-04-15T01:22:55;97183.02;;;9.95;51.68
75945;BME280;64628;50.104;14.614;2023-04-15T01:25:28;97184.14;;;9.60;52.15
75945;BME280;64628;50.104;14.614;2023-04-15T01:27:46;97178.11;;;9.24;52.47
75945;BME280;64628;50.104;14.614;2023-04-15T01:30:12;97185.43;;;9.30;52.83
75945;BME280;64628;50.104;14.614;2023-04-15T01:32:37;97188.01;;;9.11;53.18
75945;BME280;64628;50.104;14.614;2023-04-15T01:35:03;97186.94;;;8.97;53.38
75945;BME280;64628;50.104;14.614;2023-04-15T01:37:28;97189.45;;;9.00;53.29
75945;BME280;64628;50.104;14.614;2023-04-15T01:39:53;97194.25;;;8.99;53.43
75945;BME280;64628;50.104;14.614;2023-04-15T01:42:20;97196.68;;;9.18;53.11
75945;BME280;64628;50.104;14.614;2023-04-15T01:44:44;97194.12;;;8.97;53.33
75945;BME280;64628;50.104;14.614;2023-04-15T01:49:35;97202.96;;;9.01;52.95
75945;BME280;64628;50.104;14.614;2023-04-15T01:52:01;97204.67;;;9.21;53.08
75945;BME280;64628;50.104;14.614;2023-04-15T01:54:26;97206.72;;;9.24;53.19
75945;BME280;64628;50.104;14.614;2023-04-15T01:56:52;97210.98;;;9.06;53.03
75945;BME280;64628;50.104;14.614;2023-04-15T01:59:17;97208.90;;;9.34;52.91
75945;BME280;64628;50.104;14.614;2023-04-15T02:01:43;97207.02;;;9.42;52.65
75945;BME280;64628;50.104;14.614;2023-04-15T02:04:08;97208.62;;;9.23;53.00
75945;BME280;64628;50.104;14.614;2023-04-15T02:06:34;97205.20;;;9.15;53.21
75945;BME280;64628;50.104;14.614;2023-04-15T02:08:59;97202.09;;;9.16;53.06
75945;BME280;64628;50.104;14.614;2023-04-15T02:11:24;97202.30;;;9.22;52.97
75945;BME280;64628;50.104;14.614;2023-04-15T02:13:50;97203.37;;;9.20;52.87
75945;BME280;64628;50.104;14.614;2023-04-15T02:16:16;97201.59;;;9.10;53.23
75945;BME280;64628;50.104;14.614;2023-04-15T02:18:41;97200.77;;;9.20;53.03
75945;BME280;64628;50.104;14.614;2023-04-15T02:21:06;97199.37;;;9.06;53.29
75945;BME280;64628;50.104;14.614;2023-04-15T02:23:32;97196.91;;;9.01;53.38
75945;BME280;64628;50.104;14.614;2023-04-15T02:25:57;97201.75;;;8.98;53.54
75945;BME280;64628;50.104;14.614;2023-04-15T02:28:23;97200.37;;;9.45;53.56
75945;BME280;64628;50.104;14.614;2023-04-15T02:30:48;97195.30;;;8.83;53.45
75945;BME280;64628;50.104;14.614;2023-04-15T02:33:14;97194.55;;;9.19;53.19
75945;BME280;64628;50.104;14.614;2023-04-15T02:35:39;97197.77;;;9.66;53.16
75945;BME280;64628;50.104;14.614;2023-04-15T02:38:04;97200.02;;;9.15;53.30
75945;BME280;64628;50.104;14.614;2023-04-15T02:40:30;97201.15;;;9.25;53.16
75945;BME280;64628;50.104;14.614;2023-04-15T02:42:56;97202.25;;;9.32;53.03
75945;BME280;64628;50.104;14.614;2023-04-15T02:45:21;97203.82;;;9.18;53.20
75945;BME280;64628;50.104;14.614;2023-04-15T02:47:46;97199.90;;;9.21;53.24
75945;BME280;64628;50.104;14.614;2023-04-15T02:50:13;97200.19;;;9.22;53.31
75945;BME280;64628;50.104;14.614;2023-04-15T02:52:38;97205.64;;;9.28;53.22
75945;BME280;64628;50.104;14.614;2023-04-15T02:55:03;97209.32;;;9.32;52.98
75945;BME280;64628;50.104;14.614;2023-04-15T02:57:28;97214.11;;;9.20;53.31
75945;BME280;64628;50.104;14.614;2023-04-15T02:59:53;97215.06;;;9.05;53.27
75945;BME280;64628;50.104;14.614;2023-04-15T03:02:19;97212.98;;;9.24;52.88
75945;BME280;64628;50.104;14.614;2023-04-15T03:04:44;97214.11;;;9.36;53.15
75945;BME280;64628;50.104;14.614;2023-04-15T03:07:10;97209.73;;;9.44;53.19
75945;BME280;64628;50.104;14.614;2023-04-15T03:09:35;97206.06;;;9.60;52.88
75945;BME280;64628;50.104;14.614;2023-04-15T03:12:00;97207.95;;;9.61;52.81
75945;BME280;64628;50.104;14.614;2023-04-15T03:14:26;97209.83;;;9.68;52.84
75945;BME280;64628;50.104;14.614;2023-04-15T03:16:51;97216.88;;;9.30;53.12
75945;BME280;64628;50.104;14.614;2023-04-15T03:19:17;97217.95;;;9.61;53.15
75945;BME280;64628;50.104;14.614;2023-04-15T03:21:42;97220.86;;;9.76;52.89
75945;BME280;64628;50.104;14.614;2023-04-15T03:24:07;97223.22;;;9.34;52.95
75945;BME280;64628;50.104;14.614;2023-04-15T03:26:33;97234.97;;;9.51;53.22
75945;BME280;64628;50.104;14.614;2023-04-15T03:28:58;97235.80;;;9.47;53.36
75945;BME280;64628;50.104;14.614;2023-04-15T03:31:23;97240.37;;;9.43;53.65
75945;BME280;64628;50.104;14.614;2023-04-15T03:33:49;97247.05;;;8.81;53.70
75945;BME280;64628;50.104;14.614;2023-04-15T03:36:14;97251.07;;;8.88;54.05
75945;BME280;64628;50.104;14.614;2023-04-15T03:38:40;97256.90;;;9.14;53.49
75945;BME280;64628;50.104;14.614;2023-04-15T03:41:05;97266.89;;;8.47;52.52
75945;BME280;64628;50.104;14.614;2023-04-15T03:43:31;97273.56;;;8.52;51.93
75945;BME280;64628;50.104;14.614;2023-04-15T03:45:57;97279.55;;;7.84;52.91
75945;BME280;64628;50.104;14.614;2023-04-15T03:48:22;97284.04;;;7.33;53.22
75945;BME280;64628;50.104;14.614;2023-04-15T03:50:47;97282.53;;;7.32;53.89
75945;BME280;64628;50.104;14.614;2023-04-15T03:53:13;97286.06;;;7.07;53.80
75945;BME280;64628;50.104;14.614;2023-04-15T03:55:38;97290.83;;;6.77;54.23
75945;BME280;64628;50.104;14.614;2023-04-15T03:58:03;97286.41;;;6.95;53.52
75945;BME280;64628;50.104;14.614;2023-04-15T04:00:28;97294.15;;;6.90;53.70
75945;BME280;64628;50.104;14.614;2023-04-15T04:02:54;97305.04;;;6.66;53.77
75945;BME280;64628;50.104;14.614;2023-04-15T04:05:19;97306.60;;;6.81;54.12
75945;BME280;64628;50.104;14.614;2023-04-15T04:07:45;97308.41;;;6.73;53.36
75945;BME280;64628;50.104;14.614;2023-04-15T04:10:10;97309.11;;;6.23;54.45
75945;BME280;64628;50.104;14.614;2023-04-15T04:12:35;97317.58;;;6.51;54.14
75945;BME280;64628;50.104;14.614;2023-04-15T04:15:01;97325.56;;;6.82;52.92
75945;BME280;64628;50.104;14.614;2023-04-15T04:17:26;97327.17;;;6.67;53.03
75945;BME280;64628;50.104;14.614;2023-04-15T04:19:52;97325.21;;;7.28;52.24
75945;BME280;64628;50.104;14.614;2023-04-15T04:22:21;97330.16;;;7.30;51.75
75945;BME280;64628;50.104;14.614;2023-04-15T04:24:42;97335.63;;;7.24;51.37
75945;BME280;64628;50.104;14.614;2023-04-15T04:27:08;97337.71;;;7.19;51.19
75945;BME280;64628;50.104;14.614;2023-04-15T04:29:34;97337.35;;;7.68;50.66
75945;BME280;64628;50.104;14.614;2023-04-15T04:31:59;97338.57;;;7.54;50.93
75945;BME280;64628;50.104;14.614;2023-04-15T04:34:25;97343.16;;;7.70;50.57
75945;BME280;64628;50.104;14.614;2023-04-15T04:36:50;97346.46;;;7.66;50.32
75945;BME280;64628;50.104;14.614;2023-04-15T04:39:16;97350.44;;;7.76;50.34
75945;BME280;64628;50.104;14.614;2023-04-15T04:41:42;97359.17;;;7.73;50.63
75945;BME280;64628;50.104;14.614;2023-04-15T04:44:07;97360.66;;;7.50;50.53
75945;BME280;64628;50.104;14.614;2023-04-15T04:46:32;97360.83;;;7.93;50.74
75945;BME280;64628;50.104;14.614;2023-04-15T04:48:58;97361.91;;;7.82;50.32
75945;BME280;64628;50.104;14.614;2023-04-15T04:51:23;97367.10;;;7.85;50.32
75945;BME280;64628;50.104;14.614;2023-04-15T04:53:49;97371.12;;;7.89;50.58
75945;BME280;64628;50.104;14.614;2023-04-15T04:56:15;97371.71;;;7.95;50.27
75945;BME280;64628;50.104;14.614;2023-04-15T04:58:40;97373.80;;;8.06;49.92
75945;BME280;64628;50.104;14.614;2023-04-15T05:01:05;97380.29;;;7.97;50.24
75945;BME280;64628;50.104;14.614;2023-04-15T05:03:31;97384.02;;;7.81;50.00
75945;BME280;64628;50.104;14.614;2023-04-15T05:05:56;97383.16;;;8.22;50.24
75945;BME280;64628;50.104;14.614;2023-04-15T05:08:22;97384.56;;;8.22;50.24
75945;BME280;64628;50.104;14.614;2023-04-15T05:10:48;97390.27;;;7.99;50.35
75945;BME280;64628;50.104;14.614;2023-04-15T05:13:13;97390.69;;;8.20;50.09
75945;BME280;64628;50.104;14.614;2023-04-15T05:15:38;97391.57;;;8.27;49.51
75945;BME280;64628;50.104;14.614;2023-04-15T05:18:04;97391.09;;;8.03;48.91
75945;BME280;64628;50.104;14.614;2023-04-15T05:20:29;97387.99;;;8.45;49.10
75945;BME280;64628;50.104;14.614;2023-04-15T05:22:55;97392.52;;;8.23;48.46
75945;BME280;64628;50.104;14.614;2023-04-15T05:25:20;97394.32;;;8.61;48.03
75945;BME280;64628;50.104;14.614;2023-04-15T05:27:45;97390.92;;;8.16;48.57
75945;BME280;64628;50.104;14.614;2023-04-15T05:30:11;97392.24;;;8.28;48.46
75945;BME280;64628;50.104;14.614;2023-04-15T05:32:36;97399.71;;;7.95;47.82
75945;BME280;64628;50.104;14.614;2023-04-15T05:35:02;97410.26;;;8.25;48.24
75945;BME280;64628;50.104;14.614;2023-04-15T05:37:27;97409.30;;;8.08;48.48
75945;BME280;64628;50.104;14.614;2023-04-15T05:39:53;97410.74;;;8.18;48.88
75945;BME280;64628;50.104;14.614;2023-04-15T05:42:18;97417.35;;;8.19;48.95
75945;BME280;64628;50.104;14.614;2023-04-15T05:44:44;97427.60;;;8.67;48.88
75945;BME280;64628;50.104;14.614;2023-04-15T05:47:09;97427.54;;;8.69;48.78
75945;BME280;64628;50.104;14.614;2023-04-15T05:49:34;97426.86;;;8.70;47.92
75945;BME280;64628;50.104;14.614;2023-04-15T05:52:00;97420.23;;;8.57;47.80
75945;BME280;64628;50.104;14.614;2023-04-15T05:54:25;97424.17;;;8.84;47.41
75945;BME280;64628;50.104;14.614;2023-04-15T05:56:51;97430.56;;;9.37;47.84
75945;BME280;64628;50.104;14.614;2023-04-15T05:59:17;97440.03;;;9.31;47.44
75945;BME280;64628;50.104;14.614;2023-04-15T06:01:42;97441.00;;;9.20;47.18
75945;BME280;64628;50.104;14.614;2023-04-15T06:04:07;97438.35;;;9.37;46.44
75945;BME280;64628;50.104;14.614;2023-04-15T06:06:33;97432.56;;;9.63;44.51
75945;BME280;64628;50.104;14.614;2023-04-15T06:08:58;97431.23;;;9.23;44.39
75945;BME280;64628;50.104;14.614;2023-04-15T06:11:24;97435.08;;;8.75;45.82
75945;BME280;64628;50.104;14.614;2023-04-15T06:13:49;97438.36;;;8.54;46.43
75945;BME280;64628;50.104;14.614;2023-04-15T06:16:14;97451.64;;;9.85;45.00
75945;BME280;64628;50.104;14.614;2023-04-15T06:18:40;97448.02;;;13.23;38.39
75945;BME280;64628;50.104;14.614;2023-04-15T06:21:05;97450.78;;;14.22;36.31
75945;BME280;64628;50.104;14.614;2023-04-15T06:23:33;97442.50;;;13.63;34.12
75945;BME280;64628;50.104;14.614;2023-04-15T06:25:56;97443.67;;;13.32;35.35
75945;BME280;64628;50.104;14.614;2023-04-15T06:28:21;97446.18;;;14.91;32.71
75945;BME280;64628;50.104;14.614;2023-04-15T06:30:47;97445.61;;;17.14;30.52
75945;BME280;64628;50.104;14.614;2023-04-15T06:33:12;97447.46;;;18.89;27.74
75945;BME280;64628;50.104;14.614;2023-04-15T06:35:37;97439.80;;;20.14;24.88
75945;BME280;64628;50.104;14.614;2023-04-15T06:38:02;97427.44;;;21.16;23.31
75945;BME280;64628;50.104;14.614;2023-04-15T06:40:28;97427.84;;;22.38;21.50
75945;BME280;64628;50.104;14.614;2023-04-15T06:42:54;97439.47;;;22.76;20.40
75945;BME280;64628;50.104;14.614;2023-04-15T06:45:19;97446.67;;;22.68;20.62
75945;BME280;64628;50.104;14.614;2023-04-15T06:47:45;97445.55;;;23.95;19.65
75945;BME280;64628;50.104;14.614;2023-04-15T06:50:11;97442.43;;;24.28;19.27
75945;BME280;64628;50.104;14.614;2023-04-15T06:52:37;97437.65;;;24.47;19.32
75945;BME280;64628;50.104;14.614;2023-04-15T06:55:03;97437.46;;;24.81;18.19
75945;BME280;64628;50.104;14.614;2023-04-15T06:57:28;97441.32;;;26.04;18.33
75945;BME280;64628;50.104;14.614;2023-04-15T06:59:54;97446.36;;;26.60;16.49
75945;BME280;64628;50.104;14.614;2023-04-15T07:02:20;97452.02;;;25.58;18.18
75945;BME280;64628;50.104;14.614;2023-04-15T07:04:45;97456.18;;;26.02;18.44
75945;BME280;64628;50.104;14.614;2023-04-15T07:07:11;97454.75;;;27.09;17.77
75945;BME280;64628;50.104;14.614;2023-04-15T07:09:37;97458.27;;;26.06;17.13
75945;BME280;64628;50.104;14.614;2023-04-15T07:12:03;97464.76;;;23.68;18.76
75945;BME280;64628;50.104;14.614;2023-04-15T07:14:29;97471.60;;;24.41;19.79
75945;BME280;64628;50.104;14.614;2023-04-15T07:16:54;97479.58;;;23.91;18.67
